sensor_id;sensor_type;location;lat;lon;timestamp;P1;durP1;ratioP1;P2;durP2;ratioP2
21611;SDS011;47005;52.292;13.452;2023-06-24T00:02:10;12.95;;;10.10;;
21611;SDS011;47005;52.292;13.452;2023-06-24T00:04:35;17.58;;;11.05;;
21611;SDS011;47005;52.292;13.452;2023-06-24T00:07:01;14.07;;;10.50;;
21611;SDS011;47005;52.292;13.452;2023-06-24T00:09:27;15.98;;;10.90;;
21611;SDS011;47005;52.292;13.452;2023-06-24T00:11:55;15.23;;;10.85;;
21611;SDS011;47005;52.292;13.452;2023-06-24T00:14:21;13.10;;;10.60;;
21611;SDS011;47005;52.292;13.452;2023-06-24T00:16:49;15.35;;;10.95;;
21611;SDS011;47005;52.292;13.452;2023-06-24T00:19:19;14.05;;;11.85;;
21611;SDS011;47005;52.292;13.452;2023-06-24T00:21:46;13.63;;;10.63;;
21611;SDS011;47005;52.292;13.452;2023-06-24T00:24:13;17.83;;;11.32;;
21611;SDS011;47005;52.292;13.452;2023-06-24T00:26:38;18.20;;;11.70;;
21611;SDS011;47005;52.292;13.452;2023-06-24T00:29:04;20.85;;;12.88;;
21611;SDS011;47005;52.292;13.452;2023-06-24T00:31:29;15.80;;;13.15;;
21611;SDS011;47005;52.292;13.452;2023-06-24T00:33:55;16.08;;;13.18;;
21611;SDS011;47005;52.292;13.452;2023-06-24T00:36:21;17.13;;;13.50;;
21611;SDS011;47005;52.292;13.452;2023-06-24T00:38:46;22.30;;;14.05;;
21611;SDS011;47005;52.292;13.452;2023-06-24T00:41:13;18.17;;;13.63;;
21611;SDS011;47005;52.292;13.452;2023-06-24T00:43:41;17.67;;;12.98;;
21611;SDS011;47005;52.292;13.452;2023-06-24T00:46:07;20.10;;;13.32;;
21611;SDS011;47005;52.292;13.452;2023-06-24T00:48:33;19.65;;;14.38;;
21611;SDS011;47005;52.292;13.452;2023-06-24T00:51:01;15.75;;;13.13;;
21611;SDS011;47005;52.292;13.452;2023-06-24T00:53:27;18.40;;;13.88;;
21611;SDS011;47005;52.292;13.452;2023-06-24T00:55:53;18.33;;;13.98;;
21611;SDS011;47005;52.292;13.452;2023-06-24T00:58:20;22.05;;;15.00;;
21611;SDS011;47005;52.292;13.452;2023-06-24T01:00:47;19.98;;;14.82;;
21611;SDS011;47005;52.292;13.452;2023-06-24T01:03:21;19.30;;;13.82;;
21611;SDS011;47005;52.292;13.452;2023-06-24T01:05:48;19.17;;;14.50;;
21611;SDS011;47005;52.292;13.452;2023-06-24T01:08:14;21.00;;;16.02;;
21611;SDS011;47005;52.292;13.452;2023-06-24T01:10:41;23.42;;;15.85;;
21611;SDS011;47005;52.292;13.452;2023-06-24T01:13:07;19.65;;;16.58;;
21611;SDS011;47005;52.292;13.452;2023-06-24T01:15:33;17.55;;;14.93;;
21611;SDS011;47005;52.292;13.452;2023-06-24T01:18:07;18.25;;;15.02;;
21611;SDS011;47005;52.292;13.452;2023-06-24T01:26:40;28.02;;;14.57;;
21611;SDS011;47005;52.292;13.452;2023-06-24T01:35:11;20.50;;;14.75;;
21611;SDS011;47005;52.292;13.452;2023-06-24T01:37:42;26.80;;;18.90;;
21611;SDS011;47005;52.292;13.452;2023-06-24T01:42:47;24.58;;;18.08;;
21611;SDS011;47005;52.292;13.452;2023-06-24T01:45:19;20.80;;;16.98;;
21611;SDS011;47005;52.292;13.452;2023-06-24T01:47:52;22.17;;;16.40;;
21611;SDS011;47005;52.292;13.452;2023-06-24T01:50:26;18.60;;;15.40;;
21611;SDS011;47005;52.292;13.452;2023-06-24T01:52:54;22.25;;;16.55;;
21611;SDS011;47005;52.292;13.452;2023-06-24T01:55:21;21.33;;;17.10;;
21611;SDS011;47005;52.292;13.452;2023-06-24T01:57:49;25.88;;;17.23;;
21611;SDS011;47005;52.292;13.452;2023-06-24T02:00:16;20.30;;;16.25;;
21611;SDS011;47005;52.292;13.452;2023-06-24T02:02:42;23.30;;;17.88;;
21611;SDS011;47005;52.292;13.452;2023-06-24T02:05:10;24.08;;;16.67;;
21611;SDS011;47005;52.292;13.452;2023-06-24T02:07:36;24.85;;;18.20;;
21611;SDS011;47005;52.292;13.452;2023-06-24T02:10:04;23.42;;;16.65;;
21611;SDS011;47005;52.292;13.452;2023-06-24T02:12:31;21.80;;;17.05;;
21611;SDS011;47005;52.292;13.452;2023-06-24T02:14:57;20.50;;;16.05;;
21611;SDS011;47005;52.292;13.452;2023-06-24T02:17:24;17.98;;;14.60;;
21611;SDS011;47005;52.292;13.452;2023-06-24T02:19:54;21.58;;;16.45;;
21611;SDS011;47005;52.292;13.452;2023-06-24T02:22:21;23.70;;;16.23;;
21611;SDS011;47005;52.292;13.452;2023-06-24T02:24:47;20.98;;;15.93;;
21611;SDS011;47005;52.292;13.452;2023-06-24T02:27:15;20.80;;;15.70;;
21611;SDS011;47005;52.292;13.452;2023-06-24T02:29:42;24.35;;;15.38;;
21611;SDS011;47005;52.292;13.452;2023-06-24T02:32:08;23.25;;;13.98;;
21611;SDS011;47005;52.292;13.452;2023-06-24T02:34:34;19.42;;;14.82;;
21611;SDS011;47005;52.292;13.452;2023-06-24T02:37:00;17.35;;;14.93;;
21611;SDS011;47005;52.292;13.452;2023-06-24T02:39:26;18.63;;;14.32;;
21611;SDS011;47005;52.292;13.452;2023-06-24T02:41:51;18.98;;;14.45;;
21611;SDS011;47005;52.292;13.452;2023-06-24T02:44:17;19.30;;;15.02;;
21611;SDS011;47005;52.292;13.452;2023-06-24T02:46:43;20.40;;;15.35;;
21611;SDS011;47005;52.292;13.452;2023-06-24T02:49:11;21.85;;;16.30;;
21611;SDS011;47005;52.292;13.452;2023-06-24T02:51:40;20.77;;;14.40;;
21611;SDS011;47005;52.292;13.452;2023-06-24T02:54:06;17.88;;;13.68;;
21611;SDS011;47005;52.292;13.452;2023-06-24T02:56:32;20.30;;;14.55;;
21611;SDS011;47005;52.292;13.452;2023-06-24T02:58:59;22.73;;;16.33;;
21611;SDS011;47005;52.292;13.452;2023-06-24T03:01:25;17.63;;;13.73;;
21611;SDS011;47005;52.292;13.452;2023-06-24T03:03:55;18.05;;;14.63;;
21611;SDS011;47005;52.292;13.452;2023-06-24T03:06:24;16.42;;;13.43;;
21611;SDS011;47005;52.292;13.452;2023-06-24T03:08:52;20.80;;;14.20;;
21611;SDS011;47005;52.292;13.452;2023-06-24T03:11:17;17.50;;;13.48;;
21611;SDS011;47005;52.292;13.452;2023-06-24T03:13:43;20.58;;;11.95;;
21611;SDS011;47005;52.292;13.452;2023-06-24T03:16:09;15.13;;;11.93;;
21611;SDS011;47005;52.292;13.452;2023-06-24T03:18:46;16.25;;;11.55;;
21611;SDS011;47005;52.292;13.452;2023-06-24T03:21:12;17.67;;;11.63;;
21611;SDS011;47005;52.292;13.452;2023-06-24T03:23:37;17.63;;;13.20;;
21611;SDS011;47005;52.292;13.452;2023-06-24T03:26:04;16.08;;;11.07;;
21611;SDS011;47005;52.292;13.452;2023-06-24T03:28:30;16.92;;;10.38;;
21611;SDS011;47005;52.292;13.452;2023-06-24T03:30:57;14.68;;;11.57;;
21611;SDS011;47005;52.292;13.452;2023-06-24T03:33:23;14.00;;;10.00;;
21611;SDS011;47005;52.292;13.452;2023-06-24T03:35:49;15.15;;;11.93;;
21611;SDS011;47005;52.292;13.452;2023-06-24T03:38:16;17.70;;;11.43;;
21611;SDS011;47005;52.292;13.452;2023-06-24T03:40:42;15.77;;;10.90;;
21611;SDS011;47005;52.292;13.452;2023-06-24T03:43:08;16.10;;;11.05;;
21611;SDS011;47005;52.292;13.452;2023-06-24T03:45:34;16.88;;;11.10;;
21611;SDS011;47005;52.292;13.452;2023-06-24T03:48:00;15.35;;;9.95;;
21611;SDS011;47005;52.292;13.452;2023-06-24T03:50:26;12.32;;;9.95;;
21611;SDS011;47005;52.292;13.452;2023-06-24T03:52:51;19.73;;;10.95;;
21611;SDS011;47005;52.292;13.452;2023-06-24T03:55:17;14.05;;;10.40;;
21611;SDS011;47005;52.292;13.452;2023-06-24T03:57:42;23.38;;;10.77;;
21611;SDS011;47005;52.292;13.452;2023-06-24T04:00:08;11.95;;;10.00;;
21611;SDS011;47005;52.292;13.452;2023-06-24T04:02:40;12.23;;;9.93;;
21611;SDS011;47005;52.292;13.452;2023-06-24T04:05:07;14.52;;;9.73;;
21611;SDS011;47005;52.292;13.452;2023-06-24T04:07:33;13.95;;;9.88;;
21611;SDS011;47005;52.292;13.452;2023-06-24T04:10:00;17.58;;;11.15;;
21611;SDS011;47005;52.292;13.452;2023-06-24T04:12:27;10.48;;;9.10;;
21611;SDS011;47005;52.292;13.452;2023-06-24T04:14:52;16.15;;;8.63;;
21611;SDS011;47005;52.292;13.452;2023-06-24T04:17:18;13.07;;;9.85;;
21611;SDS011;47005;52.292;13.452;2023-06-24T04:19:44;15.95;;;10.45;;
21611;SDS011;47005;52.292;13.452;2023-06-24T04:22:09;13.23;;;9.57;;
21611;SDS011;47005;52.292;13.452;2023-06-24T04:24:35;11.90;;;9.43;;
21611;SDS011;47005;52.292;13.452;2023-06-24T04:27:01;14.70;;;9.77;;
21611;SDS011;47005;52.292;13.452;2023-06-24T04:29:26;13.30;;;9.45;;
21611;SDS011;47005;52.292;13.452;2023-06-24T04:31:52;12.98;;;8.02;;
21611;SDS011;47005;52.292;13.452;2023-06-24T04:34:18;13.95;;;9.90;;
21611;SDS011;47005;52.292;13.452;2023-06-24T04:36:43;16.25;;;10.55;;
21611;SDS011;47005;52.292;13.452;2023-06-24T04:39:09;13.93;;;10.07;;
21611;SDS011;47005;52.292;13.452;2023-06-24T04:41:34;17.98;;;10.98;;
21611;SDS011;47005;52.292;13.452;2023-06-24T04:44:00;17.70;;;9.35;;
21611;SDS011;47005;52.292;13.452;2023-06-24T04:46:26;12.15;;;9.82;;
21611;SDS011;47005;52.292;13.452;2023-06-24T04:48:51;14.20;;;10.18;;
21611;SDS011;47005;52.292;13.452;2023-06-24T04:51:17;16.70;;;9.73;;
21611;SDS011;47005;52.292;13.452;2023-06-24T04:53:43;13.85;;;9.98;;
21611;SDS011;47005;52.292;13.452;2023-06-24T04:56:08;14.93;;;9.98;;
21611;SDS011;47005;52.292;13.452;2023-06-24T04:58:34;13.15;;;10.27;;
21611;SDS011;47005;52.292;13.452;2023-06-24T05:00:59;12.88;;;10.23;;
21611;SDS011;47005;52.292;13.452;2023-06-24T05:03:25;17.67;;;10.05;;
21611;SDS011;47005;52.292;13.452;2023-06-24T05:05:51;15.20;;;9.90;;
21611;SDS011;47005;52.292;13.452;2023-06-24T05:08:16;12.80;;;9.35;;
21611;SDS011;47005;52.292;13.452;2023-06-24T05:10:42;16.48;;;10.63;;
21611;SDS011;47005;52.292;13.452;2023-06-24T05:13:07;15.85;;;10.50;;
21611;SDS011;47005;52.292;13.452;2023-06-24T05:15:33;15.18;;;10.25;;
21611;SDS011;47005;52.292;13.452;2023-06-24T05:17:59;13.75;;;9.43;;
21611;SDS011;47005;52.292;13.452;2023-06-24T05:20:24;18.52;;;10.50;;
21611;SDS011;47005;52.292;13.452;2023-06-24T05:22:50;13.27;;;9.93;;
21611;SDS011;47005;52.292;13.452;2023-06-24T05:25:16;14.15;;;10.18;;
21611;SDS011;47005;52.292;13.452;2023-06-24T05:27:41;12.48;;;9.75;;
21611;SDS011;47005;52.292;13.452;2023-06-24T05:30:09;15.40;;;9.93;;
21611;SDS011;47005;52.292;13.452;2023-06-24T05:32:35;15.20;;;9.68;;
21611;SDS011;47005;52.292;13.452;2023-06-24T05:35:01;16.80;;;10.00;;
21611;SDS011;47005;52.292;13.452;2023-06-24T05:37:27;12.57;;;10.48;;
21611;SDS011;47005;52.292;13.452;2023-06-24T05:39:52;12.48;;;10.02;;
21611;SDS011;47005;52.292;13.452;2023-06-24T05:42:18;18.10;;;10.68;;
21611;SDS011;47005;52.292;13.452;2023-06-24T05:44:44;14.55;;;10.57;;
21611;SDS011;47005;52.292;13.452;2023-06-24T05:47:10;12.57;;;8.93;;
21611;SDS011;47005;52.292;13.452;2023-06-24T05:49:35;13.50;;;10.20;;
21611;SDS011;47005;52.292;13.452;2023-06-24T05:52:01;15.45;;;10.70;;
21611;SDS011;47005;52.292;13.452;2023-06-24T05:54:27;16.23;;;10.68;;
21611;SDS011;47005;52.292;13.452;2023-06-24T05:56:53;13.45;;;10.48;;
21611;SDS011;47005;52.292;13.452;2023-06-24T05:59:19;12.00;;;10.40;;
21611;SDS011;47005;52.292;13.452;2023-06-24T06:01:44;13.30;;;10.07;;
21611;SDS011;47005;52.292;13.452;2023-06-24T06:04:10;14.55;;;10.18;;
21611;SDS011;47005;52.292;13.452;2023-06-24T06:06:35;13.98;;;10.40;;
21611;SDS011;47005;52.292;13.452;2023-06-24T06:09:01;12.77;;;8.93;;
21611;SDS011;47005;52.292;13.452;2023-06-24T06:11:27;10.50;;;9.35;;
21611;SDS011;47005;52.292;13.452;2023-06-24T06:13:53;13.57;;;9.32;;
21611;SDS011;47005;52.292;13.452;2023-06-24T06:16:19;15.80;;;8.25;;
21611;SDS011;47005;52.292;13.452;2023-06-24T06:18:44;10.70;;;9.43;;
21611;SDS011;47005;52.292;13.452;2023-06-24T06:21:10;13.13;;;9.75;;
21611;SDS011;47005;52.292;13.452;2023-06-24T06:23:36;11.63;;;8.57;;
21611;SDS011;47005;52.292;13.452;2023-06-24T06:26:01;11.60;;;9.10;;
21611;SDS011;47005;52.292;13.452;2023-06-24T06:28:27;11.38;;;8.90;;
21611;SDS011;47005;52.292;13.452;2023-06-24T06:30:53;10.43;;;8.13;;
21611;SDS011;47005;52.292;13.452;2023-06-24T06:33:19;18.00;;;9.57;;
21611;SDS011;47005;52.292;13.452;2023-06-24T06:35:44;12.13;;;8.63;;
21611;SDS011;47005;52.292;13.452;2023-06-24T06:38:10;14.70;;;8.68;;
21611;SDS011;47005;52.292;13.452;2023-06-24T06:40:36;13.52;;;8.13;;
21611;SDS011;47005;52.292;13.452;2023-06-24T06:43:01;13.75;;;8.35;;
21611;SDS011;47005;52.292;13.452;2023-06-24T06:45:27;10.00;;;7.47;;
21611;SDS011;47005;52.292;13.452;2023-06-24T06:47:53;13.60;;;8.40;;
21611;SDS011;47005;52.292;13.452;2023-06-24T06:50:18;16.17;;;7.88;;
21611;SDS011;47005;52.292;13.452;2023-06-24T06:52:44;17.58;;;8.30;;
21611;SDS011;47005;52.292;13.452;2023-06-24T06:55:10;8.30;;;7.32;;
21611;SDS011;47005;52.292;13.452;2023-06-24T06:57:35;11.18;;;7.80;;
21611;SDS011;47005;52.292;13.452;2023-06-24T07:00:01;16.70;;;7.82;;
21611;SDS011;47005;52.292;13.452;2023-06-24T07:02:27;11.13;;;7.00;;
21611;SDS011;47005;52.292;13.452;2023-06-24T07:04:53;10.10;;;7.45;;
21611;SDS011;47005;52.292;13.452;2023-06-24T07:07:18;9.45;;;7.70;;
21611;SDS011;47005;52.292;13.452;2023-06-24T07:09:44;8.68;;;6.72;;
21611;SDS011;47005;52.292;13.452;2023-06-24T07:12:11;11.00;;;8.30;;
21611;SDS011;47005;52.292;13.452;2023-06-24T07:14:38;9.60;;;7.28;;
21611;SDS011;47005;52.292;13.452;2023-06-24T07:17:04;11.43;;;6.85;;
21611;SDS011;47005;52.292;13.452;2023-06-24T07:19:30;10.93;;;7.80;;
21611;SDS011;47005;52.292;13.452;2023-06-24T07:21:59;11.13;;;8.25;;
21611;SDS011;47005;52.292;13.452;2023-06-24T07:24:24;9.20;;;7.15;;
21611;SDS011;47005;52.292;13.452;2023-06-24T07:26:50;10.57;;;6.78;;
21611;SDS011;47005;52.292;13.452;2023-06-24T07:29:17;9.30;;;7.30;;
21611;SDS011;47005;52.292;13.452;2023-06-24T07:31:43;9.35;;;7.45;;
21611;SDS011;47005;52.292;13.452;2023-06-24T07:34:08;9.77;;;7.03;;
21611;SDS011;47005;52.292;13.452;2023-06-24T07:36:34;9.32;;;6.60;;
21611;SDS011;47005;52.292;13.452;2023-06-24T07:39:00;10.43;;;6.93;;
21611;SDS011;47005;52.292;13.452;2023-06-24T07:41:25;8.77;;;7.38;;
21611;SDS011;47005;52.292;13.452;2023-06-24T07:43:51;10.00;;;6.70;;
21611;SDS011;47005;52.292;13.452;2023-06-24T07:46:17;10.32;;;6.90;;
21611;SDS011;47005;52.292;13.452;2023-06-24T07:48:43;9.23;;;5.95;;
21611;SDS011;47005;52.292;13.452;2023-06-24T07:51:09;8.77;;;6.30;;
21611;SDS011;47005;52.292;13.452;2023-06-24T07:53:34;10.30;;;6.97;;
21611;SDS011;47005;52.292;13.452;2023-06-24T07:56:00;6.45;;;5.25;;
21611;SDS011;47005;52.292;13.452;2023-06-24T07:58:25;8.55;;;5.95;;
21611;SDS011;47005;52.292;13.452;2023-06-24T08:00:51;7.75;;;5.63;;
21611;SDS011;47005;52.292;13.452;2023-06-24T08:03:17;7.07;;;5.70;;
21611;SDS011;47005;52.292;13.452;2023-06-24T08:05:43;10.40;;;5.90;;
21611;SDS011;47005;52.292;13.452;2023-06-24T08:08:08;7.97;;;5.78;;
21611;SDS011;47005;52.292;13.452;2023-06-24T08:10:34;10.80;;;5.68;;
21611;SDS011;47005;52.292;13.452;2023-06-24T08:13:00;7.75;;;5.82;;
21611;SDS011;47005;52.292;13.452;2023-06-24T08:15:25;8.50;;;5.45;;
21611;SDS011;47005;52.292;13.452;2023-06-24T08:17:51;10.65;;;5.22;;
21611;SDS011;47005;52.292;13.452;2023-06-24T08:20:18;7.10;;;5.53;;
21611;SDS011;47005;52.292;13.452;2023-06-24T08:22:47;9.82;;;7.03;;
21611;SDS011;47005;52.292;13.452;2023-06-24T08:25:13;7.63;;;5.10;;
21611;SDS011;47005;52.292;13.452;2023-06-24T08:27:38;6.50;;;4.80;;
21611;SDS011;47005;52.292;13.452;2023-06-24T08:30:05;9.23;;;4.72;;
21611;SDS011;47005;52.292;13.452;2023-06-24T08:32:31;8.65;;;5.00;;
21611;SDS011;47005;52.292;13.452;2023-06-24T08:34:57;7.60;;;4.88;;
21611;SDS011;47005;52.292;13.452;2023-06-24T08:37:23;8.02;;;4.47;;
21611;SDS011;47005;52.292;13.452;2023-06-24T08:39:48;6.78;;;5.03;;
21611;SDS011;47005;52.292;13.452;2023-06-24T08:42:14;6.70;;;5.00;;
21611;SDS011;47005;52.292;13.452;2023-06-24T08:44:39;5.60;;;4.70;;
21611;SDS011;47005;52.292;13.452;2023-06-24T08:47:06;6.40;;;4.80;;
21611;SDS011;47005;52.292;13.452;2023-06-24T08:49:31;8.02;;;5.22;;
21611;SDS011;47005;52.292;13.452;2023-06-24T08:52:03;7.47;;;5.68;;
21611;SDS011;47005;52.292;13.452;2023-06-24T08:54:36;6.63;;;4.70;;
21611;SDS011;47005;52.292;13.452;2023-06-24T08:57:05;6.68;;;4.65;;
21611;SDS011;47005;52.292;13.452;2023-06-24T08:59:36;6.30;;;4.72;;
21611;SDS011;47005;52.292;13.452;2023-06-24T09:02:02;7.75;;;5.32;;
21611;SDS011;47005;52.292;13.452;2023-06-24T09:04:29;10.63;;;4.78;;
21611;SDS011;47005;52.292;13.452;2023-06-24T09:06:54;7.90;;;4.97;;
21611;SDS011;47005;52.292;13.452;2023-06-24T09:09:20;9.93;;;5.05;;
21611;SDS011;47005;52.292;13.452;2023-06-24T09:11:53;6.70;;;5.28;;
21611;SDS011;47005;52.292;13.452;2023-06-24T09:14:21;5.75;;;4.60;;
21611;SDS011;47005;52.292;13.452;2023-06-24T09:16:51;7.88;;;5.82;;
21611;SDS011;47005;52.292;13.452;2023-06-24T09:19:27;5.07;;;4.35;;
21611;SDS011;47005;52.292;13.452;2023-06-24T09:21:54;5.75;;;4.50;;
21611;SDS011;47005;52.292;13.452;2023-06-24T09:24:21;8.75;;;4.80;;
21611;SDS011;47005;52.292;13.452;2023-06-24T09:26:46;9.27;;;4.43;;
21611;SDS011;47005;52.292;13.452;2023-06-24T09:29:13;6.25;;;3.85;;
21611;SDS011;47005;52.292;13.452;2023-06-24T09:31:48;6.93;;;4.63;;
21611;SDS011;47005;52.292;13.452;2023-06-24T09:34:17;14.07;;;5.47;;
21611;SDS011;47005;52.292;13.452;2023-06-24T09:36:44;9.98;;;5.00;;
21611;SDS011;47005;52.292;13.452;2023-06-24T09:39:10;10.18;;;4.90;;
21611;SDS011;47005;52.292;13.452;2023-06-24T09:41:40;8.35;;;5.05;;
21611;SDS011;47005;52.292;13.452;2023-06-24T09:44:13;6.88;;;5.00;;
21611;SDS011;47005;52.292;13.452;2023-06-24T09:46:38;5.55;;;4.38;;
21611;SDS011;47005;52.292;13.452;2023-06-24T09:49:07;8.15;;;4.75;;
21611;SDS011;47005;52.292;13.452;2023-06-24T09:51:43;5.45;;;4.28;;
21611;SDS011;47005;52.292;13.452;2023-06-24T09:54:11;7.20;;;4.82;;
21611;SDS011;47005;52.292;13.452;2023-06-24T09:56:39;6.32;;;5.03;;
21611;SDS011;47005;52.292;13.452;2023-06-24T09:59:10;6.35;;;5.07;;
21611;SDS011;47005;52.292;13.452;2023-06-24T10:01:38;4.80;;;3.85;;
21611;SDS011;47005;52.292;13.452;2023-06-24T10:04:06;5.68;;;4.57;;
21611;SDS011;47005;52.292;13.452;2023-06-24T10:06:33;9.07;;;3.75;;
21611;SDS011;47005;52.292;13.452;2023-06-24T10:09:00;6.55;;;4.68;;
21611;SDS011;47005;52.292;13.452;2023-06-24T10:11:26;6.45;;;4.43;;
21611;SDS011;47005;52.292;13.452;2023-06-24T10:13:52;9.65;;;4.20;;
21611;SDS011;47005;52.292;13.452;2023-06-24T10:16:18;11.55;;;4.15;;
21611;SDS011;47005;52.292;13.452;2023-06-24T10:18:44;6.38;;;4.85;;
21611;SDS011;47005;52.292;13.452;2023-06-24T10:21:11;5.15;;;3.83;;
21611;SDS011;47005;52.292;13.452;2023-06-24T10:26:25;4.85;;;3.90;;
21611;SDS011;47005;52.292;13.452;2023-06-24T10:37:03;6.00;;;3.95;;
21611;SDS011;47005;52.292;13.452;2023-06-24T10:39:40;8.38;;;4.13;;
21611;SDS011;47005;52.292;13.452;2023-06-24T10:44:50;4.45;;;3.00;;
21611;SDS011;47005;52.292;13.452;2023-06-24T10:47:16;4.07;;;2.90;;
21611;SDS011;47005;52.292;13.452;2023-06-24T10:49:43;4.30;;;2.90;;
21611;SDS011;47005;52.292;13.452;2023-06-24T10:52:12;5.05;;;3.45;;
21611;SDS011;47005;52.292;13.452;2023-06-24T10:54:38;4.90;;;3.10;;
21611;SDS011;47005;52.292;13.452;2023-06-24T10:57:05;4.72;;;3.03;;
21611;SDS011;47005;52.292;13.452;2023-06-24T10:59:35;6.78;;;3.60;;
21611;SDS011;47005;52.292;13.452;2023-06-24T11:02:04;5.72;;;3.83;;
21611;SDS011;47005;52.292;13.452;2023-06-24T11:04:30;7.57;;;3.35;;
21611;SDS011;47005;52.292;13.452;2023-06-24T11:06:57;5.65;;;3.33;;
21611;SDS011;47005;52.292;13.452;2023-06-24T11:09:27;5.78;;;3.38;;
21611;SDS011;47005;52.292;13.452;2023-06-24T11:11:52;6.45;;;3.33;;
21611;SDS011;47005;52.292;13.452;2023-06-24T11:14:21;6.45;;;3.33;;
21611;SDS011;47005;52.292;13.452;2023-06-24T11:16:47;7.78;;;3.70;;
21611;SDS011;47005;52.292;13.452;2023-06-24T11:19:13;6.50;;;3.40;;
21611;SDS011;47005;52.292;13.452;2023-06-24T11:21:38;5.63;;;3.25;;
21611;SDS011;47005;52.292;13.452;2023-06-24T11:24:07;4.75;;;3.47;;
21611;SDS011;47005;52.292;13.452;2023-06-24T11:26:33;3.42;;;2.70;;
21611;SDS011;47005;52.292;13.452;2023-06-24T11:28:59;5.45;;;3.70;;
21611;SDS011;47005;52.292;13.452;2023-06-24T11:31:27;3.80;;;3.00;;
21611;SDS011;47005;52.292;13.452;2023-06-24T11:33:53;5.43;;;3.10;;
21611;SDS011;47005;52.292;13.452;2023-06-24T11:36:19;4.45;;;3.30;;
21611;SDS011;47005;52.292;13.452;2023-06-24T11:38:45;4.60;;;3.58;;
21611;SDS011;47005;52.292;13.452;2023-06-24T11:41:14;4.68;;;3.47;;
21611;SDS011;47005;52.292;13.452;2023-06-24T11:43:47;4.80;;;3.40;;
21611;SDS011;47005;52.292;13.452;2023-06-24T11:46:28;5.60;;;3.78;;
21611;SDS011;47005;52.292;13.452;2023-06-24T11:49:07;5.15;;;3.65;;
21611;SDS011;47005;52.292;13.452;2023-06-24T11:51:34;5.60;;;2.90;;
21611;SDS011;47005;52.292;13.452;2023-06-24T11:54:04;5.55;;;3.60;;
21611;SDS011;47005;52.292;13.452;2023-06-24T11:56:34;12.75;;;4.03;;
21611;SDS011;47005;52.292;13.452;2023-06-24T11:59:00;8.60;;;3.47;;
21611;SDS011;47005;52.292;13.452;2023-06-24T12:01:32;4.43;;;3.50;;
21611;SDS011;47005;52.292;13.452;2023-06-24T12:04:09;4.63;;;3.15;;
21611;SDS011;47005;52.292;13.452;2023-06-24T12:06:39;4.32;;;3.15;;
21611;SDS011;47005;52.292;13.452;2023-06-24T12:09:08;4.10;;;2.75;;
21611;SDS011;47005;52.292;13.452;2023-06-24T12:11:34;6.97;;;3.42;;
21611;SDS011;47005;52.292;13.452;2023-06-24T12:14:00;6.93;;;3.47;;
21611;SDS011;47005;52.292;13.452;2023-06-24T12:16:26;4.50;;;3.38;;
21611;SDS011;47005;52.292;13.452;2023-06-24T12:18:52;6.45;;;3.90;;
21611;SDS011;47005;52.292;13.452;2023-06-24T12:21:18;3.85;;;2.58;;
21611;SDS011;47005;52.292;13.452;2023-06-24T12:23:44;6.28;;;3.97;;
21611;SDS011;47005;52.292;13.452;2023-06-24T12:26:10;5.30;;;3.25;;
21611;SDS011;47005;52.292;13.452;2023-06-24T12:28:39;5.68;;;2.67;;
21611;SDS011;47005;52.292;13.452;2023-06-24T12:31:05;3.75;;;3.08;;
21611;SDS011;47005;52.292;13.452;2023-06-24T12:33:30;7.28;;;3.40;;
21611;SDS011;47005;52.292;13.452;2023-06-24T12:35:56;4.50;;;3.33;;
21611;SDS011;47005;52.292;13.452;2023-06-24T12:38:22;4.93;;;3.05;;
21611;SDS011;47005;52.292;13.452;2023-06-24T12:40:48;4.70;;;3.38;;
21611;SDS011;47005;52.292;13.452;2023-06-24T12:43:13;3.50;;;2.50;;
21611;SDS011;47005;52.292;13.452;2023-06-24T12:45:40;4.15;;;2.92;;
21611;SDS011;47005;52.292;13.452;2023-06-24T12:48:08;7.68;;;3.17;;
21611;SDS011;47005;52.292;13.452;2023-06-24T12:50:34;7.45;;;3.25;;
21611;SDS011;47005;52.292;13.452;2023-06-24T12:53:00;4.72;;;3.35;;
21611;SDS011;47005;52.292;13.452;2023-06-24T12:55:26;4.47;;;3.25;;
21611;SDS011;47005;52.292;13.452;2023-06-24T12:57:52;4.85;;;3.30;;
21611;SDS011;47005;52.292;13.452;2023-06-24T13:00:22;4.88;;;3.40;;
21611;SDS011;47005;52.292;13.452;2023-06-24T13:02:49;4.50;;;3.25;;
21611;SDS011;47005;52.292;13.452;2023-06-24T13:05:15;5.97;;;3.40;;
21611;SDS011;47005;52.292;13.452;2023-06-24T13:07:41;4.80;;;3.30;;
21611;SDS011;47005;52.292;13.452;2023-06-24T13:10:07;5.55;;;3.50;;
21611;SDS011;47005;52.292;13.452;2023-06-24T13:12:34;5.93;;;3.63;;
21611;SDS011;47005;52.292;13.452;2023-06-24T13:15:00;5.75;;;3.55;;
21611;SDS011;47005;52.292;13.452;2023-06-24T13:17:26;4.70;;;3.35;;
21611;SDS011;47005;52.292;13.452;2023-06-24T13:19:52;5.63;;;3.17;;
21611;SDS011;47005;52.292;13.452;2023-06-24T13:22:18;5.50;;;3.25;;
21611;SDS011;47005;52.292;13.452;2023-06-24T13:24:44;6.28;;;3.55;;
21611;SDS011;47005;52.292;13.452;2023-06-24T13:27:10;4.00;;;2.75;;
21611;SDS011;47005;52.292;13.452;2023-06-24T13:29:35;14.88;;;4.00;;
21611;SDS011;47005;52.292;13.452;2023-06-24T13:32:01;5.28;;;4.00;;
21611;SDS011;47005;52.292;13.452;2023-06-24T13:34:27;4.32;;;3.22;;
21611;SDS011;47005;52.292;13.452;2023-06-24T13:36:53;6.22;;;3.65;;
21611;SDS011;47005;52.292;13.452;2023-06-24T13:39:19;7.72;;;3.63;;
21611;SDS011;47005;52.292;13.452;2023-06-24T13:41:48;6.93;;;3.97;;
21611;SDS011;47005;52.292;13.452;2023-06-24T13:44:14;7.82;;;3.83;;
21611;SDS011;47005;52.292;13.452;2023-06-24T13:46:40;6.03;;;3.58;;
21611;SDS011;47005;52.292;13.452;2023-06-24T13:49:06;4.57;;;3.42;;
21611;SDS011;47005;52.292;13.452;2023-06-24T13:51:31;9.25;;;4.85;;
21611;SDS011;47005;52.292;13.452;2023-06-24T13:53:57;5.30;;;3.78;;
21611;SDS011;47005;52.292;13.452;2023-06-24T13:56:23;5.20;;;3.28;;
21611;SDS011;47005;52.292;13.452;2023-06-24T13:58:50;6.07;;;3.58;;
21611;SDS011;47005;52.292;13.452;2023-06-24T14:01:16;5.47;;;4.13;;
21611;SDS011;47005;52.292;13.452;2023-06-24T14:03:42;5.85;;;3.72;;
21611;SDS011;47005;52.292;13.452;2023-06-24T14:06:09;7.10;;;3.80;;
21611;SDS011;47005;52.292;13.452;2023-06-24T14:08:35;5.78;;;4.35;;
21611;SDS011;47005;52.292;13.452;2023-06-24T14:11:01;5.30;;;4.00;;
21611;SDS011;47005;52.292;13.452;2023-06-24T14:13:28;5.53;;;3.72;;
21611;SDS011;47005;52.292;13.452;2023-06-24T14:15:54;9.93;;;4.07;;
21611;SDS011;47005;52.292;13.452;2023-06-24T14:18:21;6.90;;;4.03;;
21611;SDS011;47005;52.292;13.452;2023-06-24T14:20:46;6.90;;;3.90;;
21611;SDS011;47005;52.292;13.452;2023-06-24T14:23:12;6.95;;;3.50;;
21611;SDS011;47005;52.292;13.452;2023-06-24T14:25:38;7.28;;;3.63;;
21611;SDS011;47005;52.292;13.452;2023-06-24T14:28:04;5.85;;;3.95;;
21611;SDS011;47005;52.292;13.452;2023-06-24T14:30:30;5.18;;;3.55;;
21611;SDS011;47005;52.292;13.452;2023-06-24T14:32:56;6.28;;;4.10;;
21611;SDS011;47005;52.292;13.452;2023-06-24T14:35:22;5.55;;;3.45;;
21611;SDS011;47005;52.292;13.452;2023-06-24T14:37:47;4.13;;;3.00;;
21611;SDS011;47005;52.292;13.452;2023-06-24T14:40:13;7.97;;;4.25;;
21611;SDS011;47005;52.292;13.452;2023-06-24T14:42:38;5.10;;;3.50;;
21611;SDS011;47005;52.292;13.452;2023-06-24T14:45:04;7.18;;;4.50;;
21611;SDS011;47005;52.292;13.452;2023-06-24T14:47:30;7.80;;;3.92;;
21611;SDS011;47005;52.292;13.452;2023-06-24T14:49:56;6.15;;;4.35;;